createdAt,value
2022-08-17T00:00:52.282Z,20.93
2022-08-17T00:01:51.504Z,20.88
2022-08-17T00:02:48.767Z,20.97
2022-08-17T00:03:47.707Z,20.97
2022-08-17T00:04:50.600Z,20.96
2022-08-17T00:05:48.698Z,20.97
2022-08-17T00:06:49.142Z,21.00
2022-08-17T00:07:47.667Z,20.96
2022-08-17T00:08:47.658Z,20.94
2022-08-17T00:09:47.671Z,20.91
2022-08-17T00:10:47.694Z,20.90
2022-08-17T00:12:35.484Z,20.81
2022-08-17T00:12:48.633Z,20.85
2022-08-17T00:13:47.604Z,20.85
2022-08-17T00:14:47.597Z,20.88
2022-08-17T00:15:47.630Z,20.76
2022-08-17T00:16:56.177Z,20.88
2022-08-17T00:17:48.568Z,20.81
2022-08-17T00:18:58.229Z,20.75
2022-08-17T00:19:48.549Z,20.75
2022-08-17T00:20:47.541Z,20.81
2022-08-17T00:22:32.988Z,20.71
2022-08-17T00:22:48.741Z,20.76
2022-08-17T00:23:49.115Z,20.69
2022-08-17T00:24:47.509Z,20.71
2022-08-17T00:25:47.497Z,20.75
2022-08-17T00:26:47.498Z,20.72
2022-08-17T00:27:47.475Z,20.56
2022-08-17T00:28:47.467Z,20.58
2022-08-17T00:29:47.454Z,20.63
2022-08-17T00:30:52.985Z,20.60
2022-08-17T00:31:48.552Z,20.50
2022-08-17T00:33:22.701Z,20.51
2022-08-17T00:33:48.419Z,20.53
2022-08-17T00:34:47.408Z,20.46
2022-08-17T00:35:47.401Z,20.41
2022-08-17T00:36:47.431Z,20.42
2022-08-17T00:37:47.380Z,20.38
2022-08-17T00:38:47.369Z,20.37
2022-08-17T00:39:47.428Z,20.37
2022-08-17T00:40:47.348Z,20.42
2022-08-17T00:41:47.368Z,20.40
2022-08-17T00:42:47.328Z,20.35
2022-08-17T00:43:47.326Z,20.27
2022-08-17T00:44:47.307Z,20.25
2022-08-17T00:45:47.294Z,20.23
2022-08-17T00:46:47.289Z,20.13
2022-08-17T00:47:47.292Z,20.08
2022-08-17T00:48:47.266Z,20.13
2022-08-17T00:49:47.256Z,20.16
2022-08-17T00:50:47.248Z,20.22
2022-08-17T00:51:47.235Z,20.07
2022-08-17T00:52:47.243Z,20.19
2022-08-17T00:53:47.215Z,20.08
2022-08-17T00:54:47.208Z,20.04
2022-08-17T00:55:47.195Z,19.92
2022-08-17T00:56:47.186Z,19.98
2022-08-17T00:57:47.254Z,19.98
2022-08-17T00:58:47.168Z,19.98
2022-08-17T00:59:47.170Z,19.92
2022-08-17T01:00:48.209Z,19.95
2022-08-17T01:01:47.137Z,20.00
2022-08-17T01:02:47.169Z,19.98
2022-08-17T01:03:47.114Z,19.86
2022-08-17T01:04:48.109Z,19.92
2022-08-17T01:05:47.096Z,19.95
2022-08-17T01:06:47.091Z,19.94
2022-08-17T01:07:47.082Z,19.94
2022-08-17T01:08:47.095Z,19.87
2022-08-17T01:09:47.063Z,19.85
2022-08-17T01:10:59.736Z,19.83
2022-08-17T01:11:48.043Z,19.90
2022-08-17T01:12:47.034Z,19.85
2022-08-17T01:13:47.038Z,19.82
2022-08-17T01:14:47.012Z,19.76
2022-08-17T01:15:47.004Z,19.83
2022-08-17T01:16:46.988Z,19.79
2022-08-17T01:17:46.985Z,19.79
2022-08-17T01:18:46.997Z,19.80
2022-08-17T01:19:46.969Z,19.80
2022-08-17T01:20:48.626Z,19.76
2022-08-17T01:21:46.960Z,19.83
2022-08-17T01:22:46.933Z,19.85
2022-08-17T01:23:46.970Z,19.76
2022-08-17T01:24:46.911Z,19.75
2022-08-17T01:25:46.909Z,19.76
2022-08-17T01:26:46.940Z,19.80
2022-08-17T01:27:46.885Z,19.76
2022-08-17T01:28:53.385Z,19.83
2022-08-17T01:29:47.867Z,19.78
2022-08-17T01:30:57.809Z,19.82
2022-08-17T01:31:47.847Z,19.76
2022-08-17T01:32:46.840Z,19.70
2022-08-17T01:33:46.832Z,19.76
2022-08-17T01:34:50.687Z,19.75
2022-08-17T01:35:46.810Z,19.68
2022-08-17T01:36:46.814Z,19.68
2022-08-17T01:37:46.792Z,19.68
2022-08-17T01:38:46.783Z,19.70
2022-08-17T01:39:46.875Z,19.65
2022-08-17T01:40:46.762Z,19.68
2022-08-17T01:41:46.753Z,19.62
2022-08-17T01:42:46.763Z,19.65
2022-08-17T01:43:46.731Z,19.70
2022-08-17T01:44:46.744Z,19.70
2022-08-17T01:45:46.711Z,19.70
2022-08-17T01:46:46.704Z,19.70
2022-08-17T01:47:46.694Z,19.75
2022-08-17T01:48:46.685Z,19.65
2022-08-17T01:49:46.696Z,19.65
2022-08-17T01:50:46.662Z,19.71
2022-08-17T01:51:46.650Z,19.70
2022-08-17T01:52:46.695Z,19.64
2022-08-17T01:53:47.629Z,19.64
2022-08-17T01:54:46.660Z,19.67
2022-08-17T01:55:46.612Z,19.72
2022-08-17T01:56:47.559Z,19.53
2022-08-17T01:57:46.591Z,19.61
2022-08-17T01:58:46.581Z,19.55
2022-08-17T01:59:46.570Z,19.57
2022-08-17T02:01:00.159Z,19.53
2022-08-17T02:01:47.583Z,19.53
2022-08-17T02:02:46.542Z,19.53
2022-08-17T02:03:56.195Z,19.52
2022-08-17T02:04:47.519Z,19.60
2022-08-17T02:05:46.531Z,19.72
2022-08-17T02:06:53.639Z,19.68
2022-08-17T02:07:59.424Z,19.58
2022-08-17T02:09:02.327Z,19.40
2022-08-17T02:09:52.576Z,19.47
2022-08-17T02:10:47.508Z,19.49
2022-08-17T02:11:46.455Z,19.45
2022-08-17T02:12:46.445Z,19.43
2022-08-17T02:13:46.430Z,19.46
2022-08-17T02:14:46.420Z,19.42
2022-08-17T02:15:46.428Z,19.35
2022-08-17T02:16:46.409Z,19.35
2022-08-17T02:17:46.393Z,19.32
2022-08-17T02:18:46.387Z,19.42
2022-08-17T02:19:46.373Z,19.49
2022-08-17T02:20:46.389Z,19.49
2022-08-17T02:21:46.354Z,19.49
2022-08-17T02:22:46.398Z,19.45
2022-08-17T02:23:46.339Z,19.42
2022-08-17T02:24:59.901Z,19.43
2022-08-17T02:25:47.344Z,19.40
2022-08-17T02:26:46.300Z,19.39
2022-08-17T02:27:46.299Z,19.40
2022-08-17T02:28:46.287Z,19.39
2022-08-17T02:29:46.273Z,19.23
2022-08-17T02:31:01.181Z,19.31
2022-08-17T02:31:47.274Z,19.38
2022-08-17T02:32:46.269Z,19.39
2022-08-17T02:33:46.237Z,19.42
2022-08-17T02:34:47.227Z,19.40
2022-08-17T02:35:46.227Z,19.45
2022-08-17T02:36:46.225Z,19.31
2022-08-17T02:37:46.196Z,19.40
2022-08-17T02:38:47.190Z,19.39
2022-08-17T02:39:46.230Z,19.46
2022-08-17T02:40:46.176Z,19.50
2022-08-17T02:41:46.174Z,19.40
2022-08-17T02:42:46.181Z,19.46
2022-08-17T02:43:46.138Z,19.43
2022-08-17T02:44:46.126Z,19.40
2022-08-17T02:45:46.118Z,19.32
2022-08-17T02:46:46.140Z,19.39
2022-08-17T02:47:46.100Z,19.46
2022-08-17T02:48:46.083Z,19.39
2022-08-17T02:49:54.134Z,19.38
2022-08-17T02:50:48.097Z,19.39
2022-08-17T02:51:46.100Z,19.40
2022-08-17T02:52:47.471Z,19.47
2022-08-17T02:53:47.035Z,19.40
2022-08-17T02:54:46.026Z,19.49
2022-08-17T02:55:46.017Z,19.46
2022-08-17T02:56:46.010Z,19.43
2022-08-17T02:57:46.012Z,19.45
2022-08-17T02:58:45.992Z,19.42
2022-08-17T02:59:49.059Z,19.40
2022-08-17T03:00:46.972Z,19.40
2022-08-17T03:01:46.012Z,19.53
2022-08-17T03:02:46.026Z,19.52
2022-08-17T03:03:45.940Z,19.43
2022-08-17T03:04:45.932Z,19.46
2022-08-17T03:05:45.922Z,19.50
2022-08-17T03:06:45.910Z,19.40
2022-08-17T03:07:45.917Z,19.43
2022-08-17T03:08:45.893Z,19.47
2022-08-17T03:09:45.883Z,19.39
2022-08-17T03:10:45.873Z,19.46
2022-08-17T03:11:45.860Z,19.49
2022-08-17T03:12:45.864Z,19.45
2022-08-17T03:13:45.843Z,19.49
2022-08-17T03:14:45.834Z,19.47
2022-08-17T03:15:45.821Z,19.47
2022-08-17T03:16:45.809Z,19.43
2022-08-17T03:17:45.816Z,19.45
2022-08-17T03:18:45.793Z,19.43
2022-08-17T03:19:45.787Z,19.46
2022-08-17T03:20:45.769Z,19.38
2022-08-17T03:21:45.763Z,19.35
2022-08-17T03:22:48.057Z,19.23
2022-08-17T03:23:46.741Z,19.38
2022-08-17T03:24:46.731Z,19.30
2022-08-17T03:25:45.737Z,19.35
2022-08-17T03:26:45.711Z,19.28
2022-08-17T03:27:48.222Z,19.27
2022-08-17T03:28:46.691Z,19.24
2022-08-17T03:29:45.685Z,19.34
2022-08-17T03:30:45.674Z,19.31
2022-08-17T03:31:45.657Z,19.27
2022-08-17T03:32:45.670Z,19.20
2022-08-17T03:33:45.643Z,19.32
2022-08-17T03:34:45.637Z,19.24
2022-08-17T03:35:45.626Z,19.25
2022-08-17T03:36:45.612Z,19.27
2022-08-17T03:37:45.648Z,19.17
2022-08-17T03:38:45.594Z,19.23
2022-08-17T03:39:45.643Z,19.25
2022-08-17T03:40:56.753Z,19.28
2022-08-17T03:41:46.566Z,19.25
2022-08-17T03:42:45.611Z,19.21
2022-08-17T03:43:45.544Z,19.25
2022-08-17T03:44:45.532Z,19.24
2022-08-17T03:45:45.521Z,19.28
2022-08-17T03:46:45.512Z,19.31
2022-08-17T03:47:45.506Z,19.23
2022-08-17T03:48:45.530Z,19.27
2022-08-17T03:49:45.484Z,19.28
2022-08-17T03:50:45.474Z,19.25
2022-08-17T03:51:45.472Z,19.32
2022-08-17T03:52:45.453Z,19.35
2022-08-17T03:53:46.460Z,19.25
2022-08-17T03:54:45.432Z,19.28
2022-08-17T03:55:45.425Z,19.27
2022-08-17T03:56:45.414Z,19.30
2022-08-17T03:57:45.404Z,19.28
2022-08-17T03:58:45.439Z,19.21
2022-08-17T03:59:45.437Z,19.32
2022-08-17T04:00:45.384Z,19.31
2022-08-17T04:01:45.398Z,19.38
2022-08-17T04:02:45.361Z,19.45
2022-08-17T04:03:45.383Z,19.49
2022-08-17T04:04:45.345Z,19.52
2022-08-17T04:05:45.333Z,19.52
2022-08-17T04:06:45.330Z,19.52
2022-08-17T04:07:45.330Z,19.60
2022-08-17T04:08:45.308Z,19.61
2022-08-17T04:09:45.329Z,19.61
2022-08-17T04:10:45.505Z,19.57
2022-08-17T04:11:45.283Z,19.67
2022-08-17T04:12:45.268Z,19.76
2022-08-17T04:13:45.263Z,19.64
2022-08-17T04:14:53.426Z,19.72
2022-08-17T04:15:46.242Z,19.76
2022-08-17T04:16:45.230Z,19.67
2022-08-17T04:17:45.221Z,19.55
2022-08-17T04:18:45.210Z,19.67
2022-08-17T04:19:45.222Z,19.61
2022-08-17T04:20:45.192Z,19.53
2022-08-17T04:21:45.182Z,19.57
2022-08-17T04:22:45.230Z,19.52
2022-08-17T04:23:45.169Z,19.61
2022-08-17T04:24:45.195Z,19.55
2022-08-17T04:25:45.146Z,19.45
2022-08-17T04:26:53.903Z,19.38
2022-08-17T04:27:46.131Z,19.23
2022-08-17T04:28:45.117Z,19.24
2022-08-17T04:29:54.877Z,19.15
2022-08-17T04:30:46.097Z,18.99
2022-08-17T04:31:45.096Z,18.99
2022-08-17T04:33:02.264Z,18.83
2022-08-17T04:33:46.064Z,18.69
2022-08-17T04:34:45.060Z,18.42
2022-08-17T04:35:45.064Z,18.38
2022-08-17T04:36:50.262Z,18.38
2022-08-17T04:37:46.027Z,18.51
2022-08-17T04:38:45.008Z,18.51
2022-08-17T04:39:46.075Z,18.64
2022-08-17T04:40:45.020Z,18.64
2022-08-17T04:41:44.989Z,18.75
2022-08-17T04:42:44.989Z,18.84
2022-08-17T04:43:44.981Z,18.93
2022-08-17T04:44:45.006Z,19.02
2022-08-17T04:45:55.079Z,19.05
2022-08-17T04:46:45.947Z,18.84
2022-08-17T04:48:16.818Z,18.60
2022-08-17T04:48:44.927Z,18.53
2022-08-17T04:49:44.910Z,18.46
2022-08-17T04:50:44.912Z,18.39
2022-08-17T04:51:51.024Z,18.32
2022-08-17T04:52:45.928Z,18.34
2022-08-17T04:53:44.877Z,18.46
2022-08-17T04:54:44.877Z,18.39
2022-08-17T04:55:44.869Z,18.50
2022-08-17T04:56:44.878Z,18.54
2022-08-17T04:57:45.239Z,18.64
2022-08-17T04:58:45.840Z,18.64
2022-08-17T04:59:44.811Z,18.84
2022-08-17T05:00:44.891Z,18.89
2022-08-17T05:01:44.817Z,18.97
2022-08-17T05:02:50.087Z,19.06
2022-08-17T05:03:45.771Z,19.09
2022-08-17T05:04:44.765Z,19.23
2022-08-17T05:05:44.792Z,19.34
2022-08-17T05:06:44.744Z,19.40
2022-08-17T05:07:44.736Z,19.47
2022-08-17T05:08:44.725Z,19.57
2022-08-17T05:09:44.718Z,19.58
2022-08-17T05:10:45.430Z,19.72
2022-08-17T05:11:45.026Z,19.76
2022-08-17T05:12:44.687Z,19.87
2022-08-17T05:13:44.678Z,19.98
2022-08-17T05:14:44.663Z,19.98
2022-08-17T05:15:44.728Z,19.97
2022-08-17T05:16:44.660Z,19.94
2022-08-17T05:17:44.627Z,20.04
2022-08-17T05:18:45.626Z,20.00
2022-08-17T05:19:48.756Z,19.89
2022-08-17T05:20:45.611Z,20.04
2022-08-17T05:21:44.613Z,20.00
2022-08-17T05:22:44.583Z,19.86
2022-08-17T05:23:44.575Z,20.00
2022-08-17T05:24:53.408Z,20.05
2022-08-17T05:25:46.762Z,20.05
2022-08-17T05:26:44.573Z,20.25
2022-08-17T05:27:44.536Z,20.31
2022-08-17T05:28:44.521Z,20.38
2022-08-17T05:29:44.513Z,20.40
2022-08-17T05:30:44.503Z,20.41
2022-08-17T05:31:44.521Z,20.50
2022-08-17T05:32:44.482Z,20.51
2022-08-17T05:33:44.609Z,20.42
2022-08-17T05:34:45.465Z,20.56
2022-08-17T05:35:44.458Z,20.50
2022-08-17T05:36:44.650Z,20.58
2022-08-17T05:37:45.452Z,20.57
2022-08-17T05:38:44.427Z,20.60
2022-08-17T05:39:44.423Z,20.57
2022-08-17T05:40:44.406Z,20.53
2022-08-17T05:41:44.395Z,20.58
2022-08-17T05:42:44.413Z,20.53
2022-08-17T05:43:44.375Z,20.54
2022-08-17T05:44:44.372Z,20.64
2022-08-17T05:45:55.177Z,20.56
2022-08-17T05:46:45.352Z,20.57
2022-08-17T05:47:44.367Z,20.38
2022-08-17T05:48:44.323Z,20.37
2022-08-17T05:49:44.316Z,20.31
2022-08-17T05:50:44.304Z,20.40
2022-08-17T05:51:44.312Z,20.35
2022-08-17T05:52:44.315Z,20.44
2022-08-17T05:53:44.272Z,20.46
2022-08-17T05:54:44.268Z,20.54
2022-08-17T05:55:44.261Z,20.61
2022-08-17T05:56:44.249Z,20.81
2022-08-17T05:57:53.085Z,20.69
2022-08-17T05:58:45.241Z,20.78
2022-08-17T05:59:44.211Z,21.00
2022-08-17T06:00:44.362Z,21.13
2022-08-17T06:01:44.223Z,21.30
2022-08-17T06:02:47.709Z,21.52
2022-08-17T06:03:45.193Z,21.64
2022-08-17T06:04:44.161Z,21.73
2022-08-17T06:05:44.178Z,21.90
2022-08-17T06:06:44.145Z,22.01
2022-08-17T06:07:44.133Z,22.09
2022-08-17T06:08:44.156Z,22.21
2022-08-17T06:09:44.120Z,22.21
2022-08-17T06:10:44.109Z,22.29
2022-08-17T06:11:44.098Z,22.45
2022-08-17T06:12:44.090Z,22.46
2022-08-17T06:13:44.109Z,22.63
2022-08-17T06:14:44.080Z,22.91
2022-08-17T06:15:44.056Z,23.04
2022-08-17T06:16:44.044Z,23.72
2022-08-17T06:17:44.041Z,24.06
2022-08-17T06:18:44.024Z,24.80
2022-08-17T06:19:44.030Z,24.97
2022-08-17T06:20:44.006Z,25.26
2022-08-17T06:21:43.995Z,25.76
2022-08-17T06:22:44.025Z,25.96
2022-08-17T06:23:43.984Z,26.57
2022-08-17T06:24:43.979Z,26.96
2022-08-17T06:25:43.958Z,27.33
2022-08-17T06:26:43.950Z,27.30
2022-08-17T06:27:43.940Z,27.48
2022-08-17T06:28:43.931Z,28.11
2022-08-17T06:29:43.957Z,28.28
2022-08-17T06:31:00.213Z,28.51
2022-08-17T06:31:44.913Z,28.60
2022-08-17T06:32:43.882Z,28.51
2022-08-17T06:33:44.875Z,28.60
2022-08-17T06:34:43.923Z,29.14
2022-08-17T06:35:43.874Z,29.37
2022-08-17T06:36:43.874Z,29.35
2022-08-17T06:37:43.846Z,29.27
2022-08-17T06:38:43.834Z,29.36
2022-08-17T06:39:43.877Z,29.26
2022-08-17T06:40:44.834Z,29.07
2022-08-17T06:41:43.809Z,29.15
2022-08-17T06:42:58.809Z,29.29
2022-08-17T06:43:47.883Z,29.70
2022-08-17T06:44:50.961Z,29.85
2022-08-17T06:45:44.787Z,30.54
2022-08-17T06:46:43.760Z,30.75
2022-08-17T06:47:43.744Z,31.05
2022-08-17T06:48:43.736Z,31.09
2022-08-17T06:49:43.723Z,30.86
2022-08-17T06:50:43.740Z,30.90
2022-08-17T06:51:43.708Z,30.01
2022-08-17T06:52:46.362Z,29.82
2022-08-17T06:53:43.680Z,30.08
2022-08-17T06:54:43.673Z,30.21
2022-08-17T06:55:43.697Z,30.67
2022-08-17T06:56:53.457Z,30.54
2022-08-17T06:57:44.648Z,30.59
2022-08-17T06:58:43.641Z,30.64
2022-08-17T06:59:55.134Z,30.42
2022-08-17T07:00:44.693Z,30.18
2022-08-17T07:01:43.608Z,30.22
2022-08-17T07:02:53.019Z,30.06
2022-08-17T07:03:44.589Z,29.54
2022-08-17T07:04:43.578Z,29.44
2022-08-17T07:05:43.600Z,29.39
2022-08-17T07:06:43.577Z,29.26
2022-08-17T07:07:43.550Z,28.89
2022-08-17T07:08:43.546Z,28.18
2022-08-17T07:09:43.533Z,27.30
2022-08-17T07:10:43.522Z,27.12
2022-08-17T07:11:43.530Z,27.11
2022-08-17T07:12:43.561Z,26.97
2022-08-17T07:13:43.495Z,26.93
2022-08-17T07:14:44.482Z,26.64
2022-08-17T07:15:43.472Z,26.38
2022-08-17T07:16:43.499Z,26.28
2022-08-17T07:17:47.528Z,26.11
2022-08-17T07:18:43.444Z,26.03
2022-08-17T07:19:43.434Z,25.86
2022-08-17T07:20:43.426Z,25.79
2022-08-17T07:21:43.466Z,25.63
2022-08-17T07:22:50.638Z,25.48
2022-08-17T07:23:44.400Z,25.35
2022-08-17T07:24:43.382Z,25.14
2022-08-17T07:25:43.381Z,25.17
2022-08-17T07:26:43.363Z,25.24
2022-08-17T07:27:43.398Z,25.27
2022-08-17T07:28:43.352Z,25.34
2022-08-17T07:29:43.345Z,25.31
2022-08-17T07:30:46.969Z,25.41
2022-08-17T07:31:43.316Z,25.66
2022-08-17T07:32:43.326Z,26.06
2022-08-17T07:33:43.299Z,26.38
2022-08-17T07:34:43.287Z,26.71
2022-08-17T07:35:43.824Z,26.88
2022-08-17T07:36:43.268Z,27.11
2022-08-17T07:37:43.402Z,27.63
2022-08-17T07:38:43.248Z,27.55
2022-08-17T07:40:15.487Z,27.46
2022-08-17T07:40:44.259Z,27.40
2022-08-17T07:41:57.250Z,27.74
2022-08-17T07:42:46.762Z,27.87
2022-08-17T07:43:44.199Z,28.01
2022-08-17T07:44:43.190Z,28.01
2022-08-17T07:45:43.176Z,27.84
2022-08-17T07:46:43.169Z,28.09
2022-08-17T07:47:43.179Z,28.32
2022-08-17T07:48:43.165Z,28.28
2022-08-17T07:49:43.138Z,28.35
2022-08-17T07:50:43.126Z,28.06
2022-08-17T07:51:44.120Z,28.15
2022-08-17T07:52:50.844Z,28.27
2022-08-17T07:53:44.109Z,27.80
2022-08-17T07:54:44.094Z,27.48
2022-08-17T07:55:43.108Z,27.43
2022-08-17T07:56:43.077Z,27.21
2022-08-17T07:57:43.084Z,26.94
2022-08-17T07:58:43.087Z,26.96
2022-08-17T07:59:43.396Z,26.79
2022-08-17T08:00:43.035Z,26.87
2022-08-17T08:01:43.095Z,26.96
2022-08-17T08:02:43.018Z,27.02
2022-08-17T08:03:43.039Z,27.13
2022-08-17T08:04:59.581Z,27.09
2022-08-17T08:05:49.991Z,27.11
2022-08-17T08:06:43.974Z,27.13
2022-08-17T08:07:43.007Z,26.98
2022-08-17T08:08:42.968Z,26.84
2022-08-17T08:09:42.962Z,26.49
2022-08-17T08:10:45.035Z,26.64
2022-08-17T08:11:44.467Z,26.73
2022-08-17T08:12:43.917Z,26.79
2022-08-17T08:13:42.932Z,26.79
2022-08-17T08:14:42.917Z,26.54
2022-08-17T08:15:45.188Z,26.35
2022-08-17T08:16:43.880Z,26.35
2022-08-17T08:17:42.927Z,26.13
2022-08-17T08:18:55.405Z,26.01
2022-08-17T08:19:43.877Z,26.12
2022-08-17T08:20:51.958Z,26.12
2022-08-17T08:21:43.831Z,26.11
2022-08-17T08:22:42.823Z,26.24
2022-08-17T08:23:42.813Z,26.20
2022-08-17T08:24:42.840Z,26.12
2022-08-17T08:25:42.809Z,26.06
2022-08-17T08:26:42.777Z,26.08
2022-08-17T08:27:42.855Z,26.23
2022-08-17T08:28:42.762Z,26.29
2022-08-17T08:29:42.759Z,26.24
2022-08-17T08:30:42.761Z,26.39
2022-08-17T08:31:42.733Z,26.46
2022-08-17T08:32:42.722Z,26.41
2022-08-17T08:33:42.713Z,26.28
2022-08-17T08:34:59.102Z,26.24
2022-08-17T08:35:43.710Z,25.94
2022-08-17T08:37:12.609Z,26.21
2022-08-17T08:37:43.746Z,26.24
2022-08-17T08:38:43.666Z,26.42
2022-08-17T08:39:42.675Z,26.61
2022-08-17T08:40:42.682Z,26.66
2022-08-17T08:41:42.650Z,26.72
2022-08-17T08:42:42.626Z,26.50
2022-08-17T08:43:42.617Z,26.41
2022-08-17T08:44:59.473Z,26.61
2022-08-17T08:45:43.628Z,26.71
2022-08-17T08:46:42.600Z,26.94
2022-08-17T08:47:42.589Z,26.88
2022-08-17T08:48:53.282Z,26.90
2022-08-17T08:50:03.530Z,27.03
2022-08-17T08:50:44.588Z,27.09
2022-08-17T08:51:42.545Z,27.12
2022-08-17T08:52:42.551Z,27.16
2022-08-17T08:53:42.524Z,27.13
2022-08-17T08:54:42.517Z,27.31
2022-08-17T08:55:42.507Z,27.43
2022-08-17T08:56:54.001Z,27.42
2022-08-17T08:57:44.513Z,27.48
2022-08-17T08:58:42.804Z,27.55
2022-08-17T08:59:44.301Z,27.58
2022-08-17T09:00:42.461Z,27.58
2022-08-17T09:01:42.508Z,27.52
2022-08-17T09:02:42.445Z,27.63
2022-08-17T09:03:52.285Z,27.62
2022-08-17T09:05:10.579Z,27.52
2022-08-17T09:05:44.420Z,27.63
2022-08-17T09:06:42.423Z,27.69
2022-08-17T09:07:42.403Z,27.91
2022-08-17T09:08:42.392Z,27.86
2022-08-17T09:09:42.381Z,27.77
2022-08-17T09:10:42.375Z,27.93
2022-08-17T09:12:01.485Z,27.99
2022-08-17T09:12:43.354Z,27.81
2022-08-17T09:13:42.342Z,27.46
2022-08-17T09:14:46.730Z,27.48
2022-08-17T09:15:43.336Z,27.63
2022-08-17T09:16:42.565Z,27.45
2022-08-17T09:17:42.314Z,27.34
2022-08-17T09:19:01.474Z,27.28
2022-08-17T09:19:43.330Z,27.40
2022-08-17T09:20:46.575Z,27.76
2022-08-17T09:21:48.557Z,27.83
2022-08-17T09:22:42.267Z,28.08
2022-08-17T09:23:42.254Z,28.13
2022-08-17T09:24:42.242Z,28.06
2022-08-17T09:25:42.230Z,28.01
2022-08-17T09:26:42.219Z,27.99
2022-08-17T09:27:42.335Z,27.71
2022-08-17T09:28:42.238Z,27.74
2022-08-17T09:29:42.202Z,27.40
2022-08-17T09:30:42.183Z,27.43
2022-08-17T09:31:48.909Z,27.59
2022-08-17T09:32:43.186Z,27.42
2022-08-17T09:33:42.162Z,27.42
2022-08-17T09:34:43.538Z,27.43
2022-08-17T09:35:42.139Z,27.50
2022-08-17T09:36:42.134Z,27.50
2022-08-17T09:37:42.158Z,27.63
2022-08-17T09:38:42.108Z,27.69
2022-08-17T09:39:42.217Z,27.69
2022-08-17T09:40:42.093Z,27.76
2022-08-17T09:41:49.063Z,27.91
2022-08-17T09:42:43.108Z,28.18
2022-08-17T09:43:42.066Z,28.30
2022-08-17T09:44:42.059Z,28.28
2022-08-17T09:45:42.080Z,28.40
2022-08-17T09:46:42.038Z,28.54
2022-08-17T09:47:42.053Z,28.45
2022-08-17T09:48:42.033Z,28.38
2022-08-17T09:49:42.015Z,28.67
2022-08-17T09:51:04.959Z,28.89
2022-08-17T09:51:42.994Z,29.00
2022-08-17T09:52:41.982Z,28.83
2022-08-17T09:53:44.579Z,28.65
2022-08-17T09:54:41.974Z,28.79
2022-08-17T09:55:41.958Z,28.89
2022-08-17T09:56:46.172Z,29.12
2022-08-17T09:57:43.971Z,29.32
2022-08-17T09:58:41.948Z,29.49
2022-08-17T09:59:41.927Z,29.69
2022-08-17T10:00:41.915Z,29.69
2022-08-17T10:01:41.952Z,29.71
2022-08-17T10:02:41.899Z,29.70
2022-08-17T10:03:41.920Z,29.36
2022-08-17T10:04:41.874Z,29.41
2022-08-17T10:05:41.884Z,29.44
2022-08-17T10:06:41.860Z,29.37
2022-08-17T10:07:41.848Z,29.48
2022-08-17T10:08:41.901Z,29.64
2022-08-17T10:09:41.831Z,29.51
2022-08-17T10:10:42.011Z,29.36
2022-08-17T10:11:45.587Z,29.64
2022-08-17T10:12:46.399Z,29.88
2022-08-17T10:13:41.794Z,29.99
2022-08-17T10:14:44.454Z,30.13
2022-08-17T10:15:42.717Z,30.28
2022-08-17T10:16:42.767Z,30.51
2022-08-17T10:17:41.778Z,30.66
2022-08-17T10:18:41.757Z,30.82
2022-08-17T10:19:43.929Z,31.00
2022-08-17T10:20:41.731Z,31.10
2022-08-17T10:21:41.722Z,31.03
2022-08-17T10:22:41.715Z,30.67
2022-08-17T10:23:41.717Z,30.42
2022-08-17T10:25:21.209Z,30.53
2022-08-17T10:25:54.604Z,30.06
2022-08-17T10:26:55.942Z,29.95
2022-08-17T10:27:42.728Z,30.29
2022-08-17T10:28:41.664Z,30.59
2022-08-17T10:29:49.200Z,30.76
2022-08-17T10:30:42.646Z,30.93
2022-08-17T10:31:41.640Z,31.15
2022-08-17T10:32:41.635Z,31.37
2022-08-17T10:33:41.613Z,31.32
2022-08-17T10:34:41.970Z,31.37
2022-08-17T10:35:41.616Z,31.20
2022-08-17T10:36:41.592Z,31.19
2022-08-17T10:37:41.574Z,31.34
2022-08-17T10:38:42.574Z,31.50
2022-08-17T10:39:52.169Z,31.47
2022-08-17T10:40:42.563Z,31.62
2022-08-17T10:41:41.543Z,31.59
2022-08-17T10:42:41.537Z,31.59
2022-08-17T10:43:41.532Z,31.60
2022-08-17T10:44:41.676Z,31.47
2022-08-17T10:45:41.518Z,31.27
2022-08-17T10:46:41.495Z,31.27
2022-08-17T10:47:54.965Z,31.19
2022-08-17T10:48:43.477Z,31.12
2022-08-17T10:49:41.463Z,30.90
2022-08-17T10:50:41.496Z,30.94
2022-08-17T10:51:41.444Z,30.85
2022-08-17T10:52:41.433Z,30.85
2022-08-17T10:53:41.429Z,30.78
2022-08-17T10:54:41.414Z,30.61
2022-08-17T10:55:41.458Z,30.54
2022-08-17T10:56:41.392Z,30.38
2022-08-17T10:57:41.383Z,30.34
2022-08-17T10:58:41.375Z,30.28
2022-08-17T10:59:41.365Z,30.44
2022-08-17T11:00:41.423Z,30.51
2022-08-17T11:01:41.363Z,30.51
2022-08-17T11:02:41.338Z,30.57
2022-08-17T11:03:41.325Z,30.56
2022-08-17T11:04:41.318Z,30.72
2022-08-17T11:05:43.835Z,30.86
2022-08-17T11:06:42.319Z,30.72
2022-08-17T11:07:41.287Z,30.81
2022-08-17T11:08:41.269Z,30.96
2022-08-17T11:09:41.271Z,31.03
2022-08-17T11:10:41.258Z,31.10
2022-08-17T11:11:41.291Z,31.27
2022-08-17T11:12:42.377Z,31.52
2022-08-17T11:13:41.227Z,31.19
2022-08-17T11:14:41.226Z,31.23
2022-08-17T11:15:41.210Z,31.46
2022-08-17T11:16:41.277Z,31.34
2022-08-17T11:17:41.190Z,31.64
2022-08-17T11:18:41.176Z,31.54
2022-08-17T11:19:41.168Z,31.50
2022-08-17T11:20:41.167Z,31.71
2022-08-17T11:21:41.145Z,31.97
2022-08-17T11:22:41.157Z,31.97
2022-08-17T11:23:41.133Z,31.79
2022-08-17T11:24:43.479Z,31.95
2022-08-17T11:25:41.110Z,31.71
2022-08-17T11:26:41.101Z,31.62
2022-08-17T11:27:41.103Z,31.65
2022-08-17T11:28:41.078Z,31.52
2022-08-17T11:29:41.070Z,31.35
2022-08-17T11:30:41.065Z,31.37
2022-08-17T11:31:41.050Z,31.04
2022-08-17T11:32:47.425Z,30.57
2022-08-17T11:33:42.028Z,30.54
2022-08-17T11:34:41.016Z,30.76
2022-08-17T11:35:41.013Z,30.97
2022-08-17T11:36:41.008Z,31.19
2022-08-17T11:37:41.032Z,31.38
2022-08-17T11:38:40.978Z,31.38
2022-08-17T11:39:42.029Z,31.42
2022-08-17T11:40:40.964Z,31.20
2022-08-17T11:41:40.966Z,31.09
2022-08-17T11:42:40.951Z,30.94
2022-08-17T11:43:42.863Z,31.07
2022-08-17T11:44:41.925Z,31.04
2022-08-17T11:45:40.912Z,30.97
2022-08-17T11:46:40.903Z,31.13
2022-08-17T11:47:40.901Z,30.86
2022-08-17T11:48:40.902Z,30.85
2022-08-17T11:49:40.877Z,30.68
2022-08-17T11:50:40.867Z,30.67
2022-08-17T11:51:40.874Z,30.60
2022-08-17T11:52:40.849Z,30.56
2022-08-17T11:53:40.857Z,30.67
2022-08-17T11:54:40.828Z,30.49
2022-08-17T11:55:44.841Z,30.67
2022-08-17T11:56:41.810Z,30.61
2022-08-17T11:57:40.807Z,30.53
2022-08-17T11:58:40.831Z,30.49
2022-08-17T11:59:40.783Z,30.42
2022-08-17T12:00:40.779Z,30.34
2022-08-17T12:01:40.762Z,30.28
2022-08-17T12:02:44.414Z,30.21
2022-08-17T12:03:41.770Z,29.99
2022-08-17T12:04:40.785Z,29.99
2022-08-17T12:05:40.724Z,29.97
2022-08-17T12:06:40.713Z,29.92
2022-08-17T12:07:40.704Z,29.84
2022-08-17T12:08:40.694Z,29.79
2022-08-17T12:09:40.706Z,29.79
2022-08-17T12:10:40.673Z,29.76
2022-08-17T12:12:04.614Z,29.60
2022-08-17T12:12:41.652Z,29.42
2022-08-17T12:13:40.644Z,29.35
2022-08-17T12:15:08.186Z,29.26
2022-08-17T12:15:42.631Z,29.20
2022-08-17T12:16:40.616Z,29.17
2022-08-17T12:17:42.944Z,29.08
2022-08-17T12:18:41.596Z,29.14
2022-08-17T12:19:40.689Z,28.82
2022-08-17T12:20:40.586Z,28.92
2022-08-17T12:21:40.570Z,28.80
2022-08-17T12:22:40.559Z,28.89
2022-08-17T12:23:40.566Z,28.76
2022-08-17T12:24:40.585Z,28.74
2022-08-17T12:25:40.533Z,28.82
2022-08-17T12:26:40.529Z,28.79
2022-08-17T12:28:04.281Z,28.77
2022-08-17T12:28:41.505Z,28.82
2022-08-17T12:29:40.490Z,28.79
2022-08-17T12:30:40.510Z,28.82
2022-08-17T12:31:40.462Z,28.77
2022-08-17T12:32:40.464Z,28.76
2022-08-17T12:33:40.450Z,28.82
2022-08-17T12:34:40.439Z,28.77
2022-08-17T12:35:40.465Z,28.67
2022-08-17T12:36:40.420Z,28.69
2022-08-17T12:37:40.408Z,28.57
2022-08-17T12:38:40.398Z,28.58
2022-08-17T12:39:40.442Z,28.65
2022-08-17T12:40:40.436Z,28.46
2022-08-17T12:41:40.375Z,28.45
2022-08-17T12:42:40.361Z,28.38
2022-08-17T12:43:40.357Z,28.35
2022-08-17T12:44:46.272Z,28.39
2022-08-17T12:45:41.380Z,28.35
2022-08-17T12:46:40.321Z,28.40
2022-08-17T12:47:40.311Z,28.27
2022-08-17T12:48:40.303Z,28.27
2022-08-17T12:49:41.290Z,28.36
2022-08-17T12:50:40.277Z,28.35
2022-08-17T12:51:40.284Z,28.52
2022-08-17T12:52:40.262Z,28.58